Energy Zeus — WDD3941 — position and weather

sailwx.info

Track history (hours):
 
Tides and Currents Weather Stations Pressure Air Temp Water Temp Dewpoint Dewpoint Depression Visibility Wind Speed Wind Dir Waves Ship Positions

Energy Zeus

Owner: Seabulk Towing Services, Inc., Fort Lauderdale, FL. More information available from US FCC via Universal Licensing System and Coast Guard Vessel Documentation Center.

Last reported at 2018-May-21 04:59 UTC. Time now 2018-May-21 05:22 UTC.
Position N 30°06' W 093°17'.

Length 30 m; draft 4 m.

Type: Tug. MMSI: 367138360.

Date/timePositionNaut miles runAvg speedWind from/ knotsBaromVisibWave heightAir tempDewpointWater temp
2018-May-21 04:59N 30°06' W 093°17'0 0.0
2018-May-21 04:29N 30°06' W 093°17'0 0.0
2018-May-21 03:59N 30°06' W 093°17'0 0.0
2018-May-21 03:29N 30°06' W 093°17'0 0.0
2018-May-21 02:59N 30°06' W 093°17'0 0.0
2018-May-21 02:29N 30°06' W 093°17'0 0.0
2018-May-21 01:59N 30°06' W 093°17'0 0.0
2018-May-21 01:29N 30°06' W 093°17'0 0.0
2018-May-21 00:59N 30°06' W 093°17'0 0.0
2018-May-21 00:29N 30°06' W 093°17'0 0.0
2018-May-20 23:59N 30°06' W 093°17'0 0.0
2018-May-20 23:29N 30°06' W 093°17'0 0.0
2018-May-20 22:59N 30°06' W 093°17'0 0.0
2018-May-20 22:29N 30°06' W 093°17'0 0.0
2018-May-20 21:59N 30°06' W 093°17'0 0.0
2018-May-20 21:29N 30°06' W 093°17'0 0.0
2018-May-20 20:59N 30°06' W 093°17'0 0.0
2018-May-20 20:29N 30°06' W 093°17'0 0.0
2018-May-20 19:59N 30°06' W 093°17'0 0.0
2018-May-20 19:29N 30°06' W 093°17'0 0.0
2018-May-20 18:59N 30°06' W 093°17'0 0.0
2018-May-20 18:29N 30°06' W 093°17'0 0.0
2018-May-20 17:59N 30°06' W 093°17'0 0.0
2018-May-20 17:29N 30°06' W 093°17'0 0.0
2018-May-20 16:59N 30°06' W 093°17'0 0.0
2018-May-20 16:29N 30°06' W 093°17'0 0.0
2018-May-20 15:59N 30°06' W 093°17'0 0.0
2018-May-20 15:29N 30°06' W 093°17'0 0.0
2018-May-20 14:59N 30°06' W 093°17'0 0.0
2018-May-20 14:29N 30°06' W 093°17'0 0.0
2018-May-20 13:59N 30°06' W 093°17'0 0.0
2018-May-20 13:29N 30°06' W 093°17'0 0.0
2018-May-20 12:59N 30°06' W 093°17'0 0.0
2018-May-20 12:29N 30°06' W 093°17'0 0.0
2018-May-20 11:59N 30°06' W 093°17'0 0.0
2018-May-20 11:29N 30°06' W 093°17'0 0.0
2018-May-20 10:59N 30°06' W 093°17'0 0.0
2018-May-20 10:29N 30°06' W 093°17'0 0.0
2018-May-20 09:59N 30°06' W 093°17'0 0.0
2018-May-20 09:29N 30°06' W 093°17'0 0.0
2018-May-20 08:59N 30°06' W 093°17'0 0.0
2018-May-20 08:29N 30°06' W 093°17'0 0.0
2018-May-20 07:59N 30°06' W 093°17'0 0.0
2018-May-20 07:29N 30°06' W 093°17'0 0.0
2018-May-20 06:56N 30°06' W 093°17'0 0.0
2018-May-20 06:29N 30°06' W 093°17'0 0.0
2018-May-20 05:59N 30°06' W 093°17'0 0.0
2018-May-20 05:29N 30°06' W 093°17'1 2.5
2018-May-20 05:00N 30°06' W 093°19'3 5.2
2018-May-20 04:30N 30°09' W 093°20'1 1.4
2018-May-20 04:00N 30°09' W 093°20'0 0.2
2018-May-20 03:30N 30°09' W 093°20'0 0.0
2018-May-20 03:00N 30°09' W 093°20'3 6.1
2018-May-20 02:30N 30°12' W 093°18'2 4.1
2018-May-20 01:59N 30°13' W 093°15'0 0.0
2018-May-20 01:26N 30°13' W 093°15'0 0.0
2018-May-20 00:51N 30°13' W 093°15'2 5.9
2018-May-20 00:30N 30°12' W 093°17'3 5.5
2018-May-19 23:58N 30°09' W 093°20'0 0.0
2018-May-19 23:30N 30°09' W 093°20'0 0.7
2018-May-19 23:00N 30°09' W 093°20'3 5.1
2018-May-19 22:30N 30°07' W 093°20'3 6.3
2018-May-19 22:00N 30°04' W 093°20'0 1.0
2018-May-19 21:30N 30°04' W 093°20'3 6.1
2018-May-19 21:00N 30°06' W 093°17'0 0.0
2018-May-19 20:28N 30°06' W 093°17'0 0.0
2018-May-19 19:58N 30°06' W 093°17'0 0.0
2018-May-19 19:30N 30°06' W 093°17'2 4.7
2018-May-19 19:00N 30°07' W 093°20'3 6.5
2018-May-19 18:30N 30°11' W 093°19'0 0.1
2018-May-19 18:00N 30°11' W 093°19'1 1.6
2018-May-19 17:30N 30°11' W 093°18'0 0.3
2018-May-19 17:01N 30°11' W 093°18'1 1.1
2018-May-19 16:30N 30°11' W 093°19'1 2.2
2018-May-19 16:00N 30°11' W 093°18'0 0.0
2018-May-19 15:29N 30°11' W 093°18'0 0.0
2018-May-19 14:59N 30°11' W 093°18'0 0.0
2018-May-19 14:29N 30°11' W 093°18'0 0.0
2018-May-19 13:59N 30°11' W 093°18'0 0.0
2018-May-19 13:29N 30°11' W 093°18'0 0.0
2018-May-19 12:56N 30°11' W 093°18'0 0.0
2018-May-19 12:26N 30°11' W 093°18'0 0.0
2018-May-19 11:59N 30°11' W 093°18'0 0.0
2018-May-19 11:29N 30°11' W 093°18'0 0.0
2018-May-19 10:59N 30°11' W 093°18'0 0.0
2018-May-19 10:29N 30°11' W 093°18'0 0.0
2018-May-19 09:59N 30°11' W 093°18'0 0.0
2018-May-19 09:29N 30°11' W 093°18'0 0.0
2018-May-19 08:59N 30°11' W 093°18'0 0.0
2018-May-19 08:29N 30°11' W 093°18'0 0.0
2018-May-19 07:59N 30°11' W 093°18'0 0.0
2018-May-19 07:29N 30°11' W 093°18'0 0.0
2018-May-19 06:59N 30°11' W 093°18'0 0.0
2018-May-19 06:29N 30°11' W 093°18'0 0.0
2018-May-19 05:59N 30°11' W 093°18'0 0.0
2018-May-19 05:26N 30°11' W 093°18'0 0.0
2018-May-19 04:59N 30°11' W 093°18'0 0.0
2018-May-19 04:26N 30°11' W 093°18'0 0.0
2018-May-19 03:59N 30°11' W 093°18'2 3.5
2018-May-19 03:31N 30°10' W 093°19'1 1.9
2018-May-19 03:01N 30°09' W 093°20'0 0.0
2018-May-19 02:31N 30°09' W 093°20'1 2.5
2018-May-19 02:01N 30°08' W 093°20'3 5.4
2018-May-19 01:31N 30°05' W 093°19'3 5.4
2018-May-19 01:01N 30°03' W 093°20'3 5.0
2018-May-19 00:31N 30°05' W 093°20'4 8.4
2018-May-19 00:00N 30°09' W 093°20'4 8.4
2018-May-18 23:31N 30°12' W 093°16'1 0.4
2018-May-18 21:39N 30°13' W 093°15'0 0.0
2018-May-18 20:42N 30°13' W 093°15'0 0.0
2018-May-18 20:06N 30°13' W 093°15'0 0.0
2018-May-18 19:57N 30°13' W 093°15'0 0.0
2018-May-18 19:27N 30°13' W 093°15'0 0.0
2018-May-18 18:57N 30°13' W 093°15'0 0.0
2018-May-18 18:27N 30°13' W 093°15'0 0.0
2018-May-18 17:57N 30°13' W 093°15'0 0.0
2018-May-18 16:39N 30°13' W 093°15'0 0.0
2018-May-18 16:27N 30°13' W 093°15'0 0.0
2018-May-18 15:45N 30°13' W 093°15'0 0.0
2018-May-18 15:27N 30°13' W 093°15'0 0.0
2018-May-18 15:00N 30°13' W 093°15'0 0.0
2018-May-18 14:27N 30°13' W 093°15'0 0.0
2018-May-18 12:45N 30°13' W 093°15'0 0.0
2018-May-18 10:42N 30°13' W 093°15'0 0.0
2018-May-18 10:30N 30°13' W 093°15'0 0.0
2018-May-18 09:51N 30°13' W 093°15'0 0.0
2018-May-18 09:30N 30°13' W 093°15'0 0.0
2018-May-18 09:00N 30°13' W 093°15'0 0.0
2018-May-18 08:27N 30°13' W 093°15'0 0.0
2018-May-18 08:00N 30°13' W 093°15'0 0.0
2018-May-18 07:30N 30°13' W 093°15'0 0.0
2018-May-18 07:00N 30°13' W 093°15'0 0.0
2018-May-18 06:30N 30°13' W 093°15'0 0.0
2018-May-18 06:00N 30°13' W 093°15'0 0.0
2018-May-18 05:30N 30°13' W 093°15'0 0.0
2018-May-18 05:00N 30°13' W 093°15'0 0.0
2018-May-18 04:27N 30°13' W 093°15'0 0.0
2018-May-18 03:57N 30°13' W 093°15'0 0.0
2018-May-18 03:30N 30°13' W 093°15'0 0.0
2018-May-18 00:45N 30°13' W 093°15'0 0.0
2018-May-18 00:15N 30°13' W 093°15'0 0.0
2018-May-17 23:51N 30°13' W 093°15'0 0.0
2018-May-17 23:30N 30°13' W 093°15'0 0.0
2018-May-17 22:51N 30°13' W 093°15'0 0.8
2018-May-17 22:30N 30°13' W 093°16'1 1.6
2018-May-17 22:01N 30°14' W 093°15'0 0.7
2018-May-17 21:31N 30°13' W 093°15'1 1.0
2018-May-17 21:00N 30°13' W 093°16'0 0.3
2018-May-17 19:32N 30°13' W 093°15'0 0.0
2018-May-17 19:26N 30°13' W 093°15'0 0.0
2018-May-17 18:29N 30°13' W 093°15'0 0.0
2018-May-17 17:56N 30°13' W 093°15'0 0.0
2018-May-17 16:38N 30°13' W 093°15'0 0.0
2018-May-17 14:20N 30°13' W 093°15'0 0.0
2018-May-17 12:18N 30°13' W 093°15'0 1.1
2018-May-17 11:58N 30°13' W 093°16'2 3.7
2018-May-17 11:30N 30°12' W 093°17'3 6.4
2018-May-17 11:00N 30°09' W 093°20'2 4.4
2018-May-17 10:30N 30°07' W 093°20'2 3.3
2018-May-17 10:00N 30°06' W 093°19'2 3.6
2018-May-17 09:29N 30°06' W 093°17'0 0.0
2018-May-17 08:59N 30°06' W 093°17'0 0.0
2018-May-17 08:29N 30°06' W 093°17'0 0.0
2018-May-17 07:59N 30°06' W 093°17'0 0.0
2018-May-17 07:29N 30°06' W 093°17'0 0.0
2018-May-17 06:59N 30°06' W 093°17'0 0.0
2018-May-17 06:29N 30°06' W 093°17'0 0.0
2018-May-17 05:59N 30°06' W 093°17'0 0.0
2018-May-17 05:29N 30°06' W 093°17'0 0.0
2018-May-17 04:59N 30°06' W 093°17'0 0.0
2018-May-17 04:29N 30°06' W 093°17'0 0.0
2018-May-17 03:56N 30°06' W 093°17'0 0.0
2018-May-17 03:29N 30°06' W 093°17'0 0.0
2018-May-17 02:59N 30°06' W 093°17'0 0.0
2018-May-17 02:29N 30°06' W 093°17'0 0.0
2018-May-17 01:59N 30°06' W 093°17'0 0.0
2018-May-17 01:29N 30°06' W 093°17'0 0.0
2018-May-17 00:59N 30°06' W 093°17'0 0.0
2018-May-17 00:29N 30°06' W 093°17'0 0.0
2018-May-16 23:59N 30°06' W 093°17'0 0.0
2018-May-16 23:29N 30°06' W 093°17'0 0.0
2018-May-16 22:59N 30°06' W 093°17'0 0.0
2018-May-16 22:29N 30°06' W 093°17'0 0.0
2018-May-16 21:59N 30°06' W 093°17'0 0.0
2018-May-16 21:29N 30°06' W 093°17'2 4.0
2018-May-16 21:01N 30°06' W 093°20'4 7.3
2018-May-16 20:31N 30°09' W 093°20'2 4.0
2018-May-16 20:01N 30°11' W 093°18'3 5.0
2018-May-16 19:30N 30°12' W 093°16'1 1.9
2018-May-16 19:00N 30°13' W 093°16'1 1.6
2018-May-16 18:30N 30°14' W 093°15'1 2.0
2018-May-16 18:01N 30°13' W 093°15'0 0.0
2018-May-16 17:28N 30°13' W 093°15'0 0.0
2018-May-16 16:58N 30°13' W 093°15'0 0.0
2018-May-16 16:28N 30°13' W 093°15'0 0.0
2018-May-16 15:58N 30°13' W 093°15'0 0.0
2018-May-16 15:28N 30°13' W 093°15'0 0.0
2018-May-16 14:58N 30°13' W 093°15'0 0.0
2018-May-16 14:28N 30°13' W 093°15'0 0.0
2018-May-16 13:58N 30°13' W 093°15'0 0.0
2018-May-16 13:28N 30°13' W 093°15'2 3.7
2018-May-16 13:00N 30°12' W 093°17'3 5.9
2018-May-16 12:30N 30°10' W 093°19'1 1.6
2018-May-16 11:57N 30°10' W 093°19'0 0.0
2018-May-16 11:30N 30°10' W 093°19'4 7.9
2018-May-16 11:00N 30°07' W 093°20'2 4.1
2018-May-16 10:28N 30°06' W 093°17'0 0.0
2018-May-16 09:58N 30°06' W 093°17'0 0.0
2018-May-16 09:28N 30°06' W 093°17'0 0.0
2018-May-16 08:58N 30°06' W 093°17'0 0.0
2018-May-16 08:28N 30°06' W 093°17'0 0.0
2018-May-16 07:58N 30°06' W 093°17'0 0.0
2018-May-16 07:19N 30°06' W 093°17'0 0.0
2018-May-16 06:58N 30°06' W 093°17'0 0.0
2018-May-16 06:25N 30°06' W 093°17'0 0.0
2018-May-16 05:58N 30°06' W 093°17'0 0.0
2018-May-16 05:28N 30°06' W 093°17'0 0.0
2018-May-16 04:58N 30°06' W 093°17'0 0.0
2018-May-16 04:28N 30°06' W 093°17'0 0.0
2018-May-16 03:58N 30°06' W 093°17'0 0.0
2018-May-16 03:28N 30°06' W 093°17'0 0.0
2018-May-16 02:58N 30°06' W 093°17'0 0.0
2018-May-16 02:28N 30°06' W 093°17'0 0.0
2018-May-16 01:58N 30°06' W 093°17'0 0.0
2018-May-16 01:28N 30°06' W 093°17'0 0.0
2018-May-16 00:58N 30°06' W 093°17'0 0.0
2018-May-16 00:28N 30°06' W 093°17'0 0.0
2018-May-15 23:58N 30°06' W 093°17'0 0.0
2018-May-15 23:28N 30°06' W 093°17'0 0.0
2018-May-15 22:58N 30°06' W 093°17'0 0.0
2018-May-15 22:28N 30°06' W 093°17'0 0.0
2018-May-15 21:58N 30°06' W 093°17'0 0.0
2018-May-15 21:28N 30°06' W 093°17'0 0.0
2018-May-15 20:58N 30°06' W 093°17'0 0.0
2018-May-15 20:28N 30°06' W 093°17'0 0.0
2018-May-15 19:58N 30°06' W 093°17'0 0.0
2018-May-15 19:28N 30°06' W 093°17'0 0.0
2018-May-15 18:58N 30°06' W 093°17'0 0.0
2018-May-15 18:28N 30°06' W 093°17'0 0.0
2018-May-15 17:58N 30°06' W 093°17'0 0.0
2018-May-15 17:28N 30°06' W 093°17'0 0.0
2018-May-15 16:58N 30°06' W 093°17'0 0.0
2018-May-15 16:28N 30°06' W 093°17'0 0.0
2018-May-15 15:58N 30°06' W 093°17'0 0.0
2018-May-15 15:28N 30°06' W 093°17'0 0.0
2018-May-15 14:58N 30°06' W 093°17'0 0.0
2018-May-15 14:28N 30°06' W 093°17'0 0.0
2018-May-15 14:00N 30°06' W 093°17'2 4.7
2018-May-15 13:30N 30°07' W 093°20'4 8.0
2018-May-15 13:00N 30°11' W 093°19'3 4.2
2018-May-15 12:11N 30°13' W 093°15'0 2.2
2018-May-15 12:00N 30°14' W 093°15'0 0.6
2018-May-15 11:29N 30°14' W 093°15'1 0.8
2018-May-15 10:33N 30°13' W 093°15'0 0.4
2018-May-15 10:27N 30°13' W 093°15'0 0.7
2018-May-15 09:57N 30°13' W 093°15'0 0.0
2018-May-15 08:45N 30°13' W 093°15'2 6.3
2018-May-15 08:30N 30°12' W 093°17'2 5.0
2018-May-15 08:00N 30°11' W 093°19'0 0.1
2018-May-15 07:30N 30°11' W 093°19'1 1.2
2018-May-15 07:00N 30°11' W 093°18'0 1.0
2018-May-15 06:30N 30°11' W 093°19'0 0.5
2018-May-15 06:00N 30°10' W 093°19'0 0.0
2018-May-15 05:30N 30°10' W 093°19'2 3.2
2018-May-15 05:00N 30°09' W 093°20'2 4.0
2018-May-15 04:30N 30°11' W 093°19'1 2.3
2018-May-15 04:00N 30°12' W 093°18'1 2.6
2018-May-15 03:30N 30°11' W 093°19'0 0.0
2018-May-15 03:00N 30°11' W 093°19'3 6.2
2018-May-15 02:30N 30°12' W 093°16'1 1.7
2018-May-15 02:00N 30°13' W 093°15'0 0.0
2018-May-15 01:29N 30°13' W 093°15'0 0.0
2018-May-15 00:59N 30°13' W 093°15'0 0.0
2018-May-15 00:26N 30°13' W 093°15'0 0.0
2018-May-14 23:41N 30°13' W 093°15'0 0.0
2018-May-14 23:23N 30°13' W 093°15'0 0.0
2018-May-14 22:47N 30°13' W 093°15'0 0.0
2018-May-14 22:23N 30°13' W 093°15'0 0.6
2018-May-14 22:00N 30°13' W 093°16'3 6.4
2018-May-14 21:30N 30°11' W 093°18'1 1.2
2018-May-14 21:01N 30°11' W 093°19'2 4.3
2018-May-14 20:30N 30°09' W 093°20'0 0.8
2018-May-14 20:00N 30°08' W 093°20'4 7.0
2018-May-14 19:30N 30°11' W 093°18'3 4.9
2018-May-14 18:56N 30°13' W 093°15'0 0.0
2018-May-14 18:29N 30°13' W 093°15'0 0.0
2018-May-14 17:56N 30°13' W 093°15'0 0.0
2018-May-14 16:08N 30°13' W 093°15'0 0.0
2018-May-14 15:56N 30°13' W 093°15'0 0.0
2018-May-14 14:02N 30°13' W 093°15'0 0.0
2018-May-14 13:56N 30°13' W 093°15'0 0.0
2018-May-14 13:29N 30°13' W 093°15'0 0.0
2018-May-14 12:26N 30°13' W 093°15'0 0.0
2018-May-14 11:17N 30°13' W 093°15'6 2.6
2018-May-14 08:48N 30°08' W 093°20'1 3.5
2018-May-14 08:30N 30°07' W 093°20'2 3.8
2018-May-14 08:00N 30°07' W 093°18'0 0.8
2018-May-14 07:29N 30°06' W 093°17'0 0.0
2018-May-14 06:59N 30°06' W 093°17'0 0.0
2018-May-14 06:29N 30°06' W 093°17'0 0.0
2018-May-14 05:59N 30°06' W 093°17'0 0.0
2018-May-14 05:29N 30°06' W 093°17'0 0.0
2018-May-14 04:59N 30°06' W 093°17'0 0.0
2018-May-14 04:29N 30°06' W 093°17'0 0.0
2018-May-14 03:59N 30°06' W 093°17'0 0.0
2018-May-14 03:29N 30°06' W 093°17'0 0.0
2018-May-14 02:59N 30°06' W 093°17'0 0.0
2018-May-14 02:29N 30°06' W 093°17'0 0.0
2018-May-14 01:59N 30°06' W 093°17'1 1.5
2018-May-14 01:31N 30°06' W 093°18'2 5.0
2018-May-14 01:01N 30°08' W 093°20'1 2.2
2018-May-14 00:30N 30°10' W 093°20'0 0.1
2018-May-14 00:01N 30°10' W 093°20'2 3.0
2018-May-13 23:30N 30°08' W 093°20'3 5.6
2018-May-13 23:00N 30°05' W 093°19'2 3.6
2018-May-13 22:30N 30°03' W 093°20'2 4.2
2018-May-13 22:01N 30°05' W 093°19'2 4.0
2018-May-13 21:30N 30°06' W 093°17'0 0.0
2018-May-13 20:59N 30°06' W 093°17'0 0.0
2018-May-13 20:29N 30°06' W 093°17'0 0.0
2018-May-13 19:59N 30°06' W 093°17'0 0.0
2018-May-13 19:29N 30°06' W 093°17'2 3.5
2018-May-13 19:00N 30°06' W 093°19'4 7.3
2018-May-13 18:30N 30°09' W 093°20'1 0.7
2018-May-13 16:34N 30°08' W 093°20'0 0.4
2018-May-13 16:31N 30°08' W 093°20'0 0.8
2018-May-13 16:00N 30°08' W 093°20'3 5.4
2018-May-13 15:31N 30°06' W 093°19'2 3.5
2018-May-13 15:00N 30°06' W 093°17'0 0.0
2018-May-13 14:30N 30°06' W 093°17'2 4.0
2018-May-13 14:00N 30°06' W 093°20'3 5.9
2018-May-13 13:31N 30°09' W 093°20'1 1.7
2018-May-13 13:00N 30°09' W 093°20'1 1.8
2018-May-13 12:31N 30°10' W 093°19'4 7.9
2018-May-13 12:01N 30°13' W 093°16'0 0.3
2018-May-13 10:50N 30°13' W 093°15'0 0.0
2018-May-13 10:26N 30°13' W 093°15'0 0.0
2018-May-13 09:56N 30°13' W 093°15'0 0.0
2018-May-13 09:26N 30°13' W 093°15'0 0.0
2018-May-13 08:59N 30°13' W 093°15'0 0.0
2018-May-13 08:11N 30°13' W 093°15'0 0.0
2018-May-13 07:59N 30°13' W 093°15'0 0.0
2018-May-13 07:29N 30°13' W 093°15'0 0.0
2018-May-13 06:59N 30°13' W 093°15'0 0.0
2018-May-13 06:29N 30°13' W 093°15'0 0.0
2018-May-13 05:59N 30°13' W 093°15'0 0.0
2018-May-13 05:29N 30°13' W 093°15'0 0.0
2018-May-13 04:59N 30°13' W 093°15'0 0.0
2018-May-13 04:29N 30°13' W 093°15'0 0.0
2018-May-13 03:59N 30°13' W 093°15'0 0.0
2018-May-13 03:29N 30°13' W 093°15'0 0.0
2018-May-13 02:59N 30°13' W 093°15'0 0.0
2018-May-13 02:29N 30°13' W 093°15'0 0.0
2018-May-13 01:59N 30°13' W 093°15'0 0.0
2018-May-13 01:29N 30°13' W 093°15'0 0.0
2018-May-13 00:59N 30°13' W 093°15'0 0.0
2018-May-13 00:29N 30°13' W 093°15'0 0.0
2018-May-12 23:59N 30°13' W 093°15'0 0.0
2018-May-12 23:20N 30°13' W 093°15'0 0.0
2018-May-12 22:35N 30°13' W 093°15'0 0.0
2018-May-12 21:11N 30°13' W 093°15'0 0.0
2018-May-12 20:29N 30°13' W 093°15'0 0.0
2018-May-12 18:59N 30°13' W 093°15'0 0.0
2018-May-12 18:23N 30°13' W 093°15'0 0.0
2018-May-12 17:59N 30°13' W 093°15'0 0.0
2018-May-12 17:29N 30°13' W 093°15'0 0.0
2018-May-12 16:05N 30°13' W 093°15'0 0.0
2018-May-12 15:59N 30°13' W 093°15'1 1.8
2018-May-12 15:30N 30°13' W 093°14'1 0.9
2018-May-12 14:52N 30°14' W 093°15'0 0.5
2018-May-12 14:30N 30°14' W 093°15'1 2.1
2018-May-12 14:00N 30°13' W 093°16'3 5.0
2018-May-12 13:30N 30°11' W 093°18'2 4.2
2018-May-12 13:00N 30°10' W 093°19'2 4.6
2018-May-12 12:30N 30°07' W 093°20'3 6.5
2018-May-12 12:00N 30°04' W 093°20'1 2.8
2018-May-12 11:30N 30°03' W 093°20'4 4.8
2018-May-12 10:38N 30°06' W 093°17'0 0.0
2018-May-12 10:23N 30°06' W 093°17'0 0.0
2018-May-12 09:50N 30°06' W 093°17'0 0.0
2018-May-12 09:26N 30°06' W 093°17'0 0.0
2018-May-12 08:59N 30°06' W 093°17'0 0.0
2018-May-12 08:26N 30°06' W 093°17'0 0.0
2018-May-12 07:59N 30°06' W 093°17'0 0.0
2018-May-12 07:29N 30°06' W 093°17'0 0.0
2018-May-12 06:59N 30°06' W 093°17'0 0.0
2018-May-12 06:29N 30°06' W 093°17'0 0.0
2018-May-12 05:56N 30°06' W 093°17'0 0.0
2018-May-12 05:29N 30°06' W 093°17'0 0.0
2018-May-12 04:59N 30°06' W 093°17'0 0.0
2018-May-12 04:30N 30°06' W 093°17'2 4.8
2018-May-12 04:00N 30°08' W 093°20'3 6.5
2018-May-12 03:30N 30°11' W 093°19'3 6.6
2018-May-12 02:59N 30°13' W 093°16'1 2.7
2018-May-12 02:30N 30°14' W 093°15'0 0.6
2018-May-12 02:00N 30°14' W 093°15'3 6.4
2018-May-12 01:30N 30°12' W 093°17'3 5.5
2018-May-12 01:00N 30°10' W 093°20'0 0.0
2018-May-12 00:30N 30°10' W 093°20'1 1.2
2018-May-12 00:00N 30°09' W 093°20'2 4.9
2018-May-11 23:30N 30°07' W 093°20'2 4.8
2018-May-11 23:00N 30°04' W 093°20'1 1.3
2018-May-11 22:30N 30°04' W 093°20'3 6.8
2018-May-11 22:00N 30°06' W 093°17'0 0.0
2018-May-11 21:25N 30°06' W 093°17'0 0.0
2018-May-11 20:58N 30°06' W 093°17'0 0.0
2018-May-11 20:28N 30°06' W 093°17'0 0.0
2018-May-11 19:58N 30°06' W 093°17'0 0.0
2018-May-11 19:28N 30°06' W 093°17'0 0.0
2018-May-11 18:58N 30°06' W 093°17'0 0.0
2018-May-11 18:28N 30°06' W 093°17'0 0.0
2018-May-11 17:58N 30°06' W 093°17'0 0.0
2018-May-11 17:28N 30°06' W 093°17'0 0.0
2018-May-11 16:58N 30°06' W 093°17'0 0.0
2018-May-11 16:28N 30°06' W 093°17'0 0.0
2018-May-11 15:58N 30°06' W 093°17'2 4.4
2018-May-11 15:30N 30°06' W 093°20'3 5.9
2018-May-11 15:00N 30°09' W 093°20'1 1.3
2018-May-11 14:30N 30°10' W 093°20'0 0.0
2018-May-11 14:00N 30°10' W 093°20'0 0.0
2018-May-11 13:30N 30°10' W 093°20'3 6.1
2018-May-11 13:00N 30°12' W 093°17'3 5.7
2018-May-11 12:30N 30°13' W 093°15'11 3.0
2018-May-11 08:52N 30°04' W 093°20'0 0.8
2018-May-11 08:30N 30°04' W 093°20'2 4.9
2018-May-11 08:00N 30°06' W 093°19'1 2.2
2018-May-11 07:30N 30°06' W 093°17'0 0.0
2018-May-11 06:58N 30°06' W 093°17'0 0.0
2018-May-11 06:25N 30°06' W 093°17'0 0.0
2018-May-11 05:55N 30°06' W 093°17'0 0.0
2018-May-11 05:28N 30°06' W 093°17'  
Track history (hours):
 
Tides and Currents Weather Stations Pressure Air Temp Water Temp Dewpoint Dewpoint Depression Visibility Wind Speed Wind Dir Waves Ship Positions

Energy Zeus

Owner: Seabulk Towing Services, Inc., Fort Lauderdale, FL. More information available from US FCC via Universal Licensing System and Coast Guard Vessel Documentation Center.

Last reported at 2018-May-21 04:59 UTC. Time now 2018-May-21 05:22 UTC.
Position N 30°06' W 093°17'.

Length 30 m; draft 4 m.

Type: Tug. MMSI: 367138360.

Date/timePositionNaut miles runAvg speedWind from/ knotsBaromVisibWave heightAir tempDewpointWater temp
2018-May-21 04:59N 30°06' W 093°17'0 0.0
2018-May-21 04:29N 30°06' W 093°17'0 0.0
2018-May-21 03:59N 30°06' W 093°17'0 0.0
2018-May-21 03:29N 30°06' W 093°17'0 0.0
2018-May-21 02:59N 30°06' W 093°17'0 0.0
2018-May-21 02:29N 30°06' W 093°17'0 0.0
2018-May-21 01:59N 30°06' W 093°17'0 0.0
2018-May-21 01:29N 30°06' W 093°17'0 0.0
2018-May-21 00:59N 30°06' W 093°17'0 0.0
2018-May-21 00:29N 30°06' W 093°17'0 0.0
2018-May-20 23:59N 30°06' W 093°17'0 0.0
2018-May-20 23:29N 30°06' W 093°17'0 0.0
2018-May-20 22:59N 30°06' W 093°17'0 0.0
2018-May-20 22:29N 30°06' W 093°17'0 0.0
2018-May-20 21:59N 30°06' W 093°17'0 0.0
2018-May-20 21:29N 30°06' W 093°17'0 0.0
2018-May-20 20:59N 30°06' W 093°17'0 0.0
2018-May-20 20:29N 30°06' W 093°17'0 0.0
2018-May-20 19:59N 30°06' W 093°17'0 0.0
2018-May-20 19:29N 30°06' W 093°17'0 0.0
2018-May-20 18:59N 30°06' W 093°17'0 0.0
2018-May-20 18:29N 30°06' W 093°17'0 0.0
2018-May-20 17:59N 30°06' W 093°17'0 0.0
2018-May-20 17:29N 30°06' W 093°17'0 0.0
2018-May-20 16:59N 30°06' W 093°17'0 0.0
2018-May-20 16:29N 30°06' W 093°17'0 0.0
2018-May-20 15:59N 30°06' W 093°17'0 0.0
2018-May-20 15:29N 30°06' W 093°17'0 0.0
2018-May-20 14:59N 30°06' W 093°17'0 0.0
2018-May-20 14:29N 30°06' W 093°17'0 0.0
2018-May-20 13:59N 30°06' W 093°17'0 0.0
2018-May-20 13:29N 30°06' W 093°17'0 0.0
2018-May-20 12:59N 30°06' W 093°17'0 0.0
2018-May-20 12:29N 30°06' W 093°17'0 0.0
2018-May-20 11:59N 30°06' W 093°17'0 0.0
2018-May-20 11:29N 30°06' W 093°17'0 0.0
2018-May-20 10:59N 30°06' W 093°17'0 0.0
2018-May-20 10:29N 30°06' W 093°17'0 0.0
2018-May-20 09:59N 30°06' W 093°17'0 0.0
2018-May-20 09:29N 30°06' W 093°17'0 0.0
2018-May-20 08:59N 30°06' W 093°17'0 0.0
2018-May-20 08:29N 30°06' W 093°17'0 0.0
2018-May-20 07:59N 30°06' W 093°17'0 0.0
2018-May-20 07:29N 30°06' W 093°17'0 0.0
2018-May-20 06:56N 30°06' W 093°17'0 0.0
2018-May-20 06:29N 30°06' W 093°17'0 0.0
2018-May-20 05:59N 30°06' W 093°17'0 0.0
2018-May-20 05:29N 30°06' W 093°17'1 2.5
2018-May-20 05:00N 30°06' W 093°19'3 5.2
2018-May-20 04:30N 30°09' W 093°20'1 1.4
2018-May-20 04:00N 30°09' W 093°20'0 0.2
2018-May-20 03:30N 30°09' W 093°20'0 0.0
2018-May-20 03:00N 30°09' W 093°20'3 6.1
2018-May-20 02:30N 30°12' W 093°18'2 4.1
2018-May-20 01:59N 30°13' W 093°15'0 0.0
2018-May-20 01:26N 30°13' W 093°15'0 0.0
2018-May-20 00:51N 30°13' W 093°15'2 5.9
2018-May-20 00:30N 30°12' W 093°17'3 5.5
2018-May-19 23:58N 30°09' W 093°20'0 0.0
2018-May-19 23:30N 30°09' W 093°20'0 0.7
2018-May-19 23:00N 30°09' W 093°20'3 5.1
2018-May-19 22:30N 30°07' W 093°20'3 6.3
2018-May-19 22:00N 30°04' W 093°20'0 1.0
2018-May-19 21:30N 30°04' W 093°20'3 6.1
2018-May-19 21:00N 30°06' W 093°17'0 0.0
2018-May-19 20:28N 30°06' W 093°17'0 0.0
2018-May-19 19:58N 30°06' W 093°17'0 0.0
2018-May-19 19:30N 30°06' W 093°17'2 4.7
2018-May-19 19:00N 30°07' W 093°20'3 6.5
2018-May-19 18:30N 30°11' W 093°19'0 0.1
2018-May-19 18:00N 30°11' W 093°19'1 1.6
2018-May-19 17:30N 30°11' W 093°18'0 0.3
2018-May-19 17:01N 30°11' W 093°18'1 1.1
2018-May-19 16:30N 30°11' W 093°19'1 2.2
2018-May-19 16:00N 30°11' W 093°18'0 0.0
2018-May-19 15:29N 30°11' W 093°18'0 0.0
2018-May-19 14:59N 30°11' W 093°18'0 0.0
2018-May-19 14:29N 30°11' W 093°18'0 0.0
2018-May-19 13:59N 30°11' W 093°18'0 0.0
2018-May-19 13:29N 30°11' W 093°18'0 0.0
2018-May-19 12:56N 30°11' W 093°18'0 0.0
2018-May-19 12:26N 30°11' W 093°18'0 0.0
2018-May-19 11:59N 30°11' W 093°18'0 0.0
2018-May-19 11:29N 30°11' W 093°18'0 0.0
2018-May-19 10:59N 30°11' W 093°18'0 0.0
2018-May-19 10:29N 30°11' W 093°18'0 0.0
2018-May-19 09:59N 30°11' W 093°18'0 0.0
2018-May-19 09:29N 30°11' W 093°18'0 0.0
2018-May-19 08:59N 30°11' W 093°18'0 0.0
2018-May-19 08:29N 30°11' W 093°18'0 0.0
2018-May-19 07:59N 30°11' W 093°18'0 0.0
2018-May-19 07:29N 30°11' W 093°18'0 0.0
2018-May-19 06:59N 30°11' W 093°18'0 0.0
2018-May-19 06:29N 30°11' W 093°18'0 0.0
2018-May-19 05:59N 30°11' W 093°18'0 0.0
2018-May-19 05:26N 30°11' W 093°18'0 0.0
2018-May-19 04:59N 30°11' W 093°18'0 0.0
2018-May-19 04:26N 30°11' W 093°18'0 0.0
2018-May-19 03:59N 30°11' W 093°18'2 3.5
2018-May-19 03:31N 30°10' W 093°19'1 1.9
2018-May-19 03:01N 30°09' W 093°20'0 0.0
2018-May-19 02:31N 30°09' W 093°20'1 2.5
2018-May-19 02:01N 30°08' W 093°20'3 5.4
2018-May-19 01:31N 30°05' W 093°19'3 5.4
2018-May-19 01:01N 30°03' W 093°20'3 5.0
2018-May-19 00:31N 30°05' W 093°20'4 8.4
2018-May-19 00:00N 30°09' W 093°20'4 8.4
2018-May-18 23:31N 30°12' W 093°16'1 0.4
2018-May-18 21:39N 30°13' W 093°15'0 0.0
2018-May-18 20:42N 30°13' W 093°15'0 0.0
2018-May-18 20:06N 30°13' W 093°15'0 0.0
2018-May-18 19:57N 30°13' W 093°15'0 0.0
2018-May-18 19:27N 30°13' W 093°15'0 0.0
2018-May-18 18:57N 30°13' W 093°15'0 0.0
2018-May-18 18:27N 30°13' W 093°15'0 0.0
2018-May-18 17:57N 30°13' W 093°15'0 0.0
2018-May-18 16:39N 30°13' W 093°15'0 0.0
2018-May-18 16:27N 30°13' W 093°15'0 0.0
2018-May-18 15:45N 30°13' W 093°15'0 0.0
2018-May-18 15:27N 30°13' W 093°15'0 0.0
2018-May-18 15:00N 30°13' W 093°15'0 0.0
2018-May-18 14:27N 30°13' W 093°15'0 0.0
2018-May-18 12:45N 30°13' W 093°15'0 0.0
2018-May-18 10:42N 30°13' W 093°15'0 0.0
2018-May-18 10:30N 30°13' W 093°15'0 0.0
2018-May-18 09:51N 30°13' W 093°15'0 0.0
2018-May-18 09:30N 30°13' W 093°15'0 0.0
2018-May-18 09:00N 30°13' W 093°15'0 0.0
2018-May-18 08:27N 30°13' W 093°15'0 0.0
2018-May-18 08:00N 30°13' W 093°15'0 0.0
2018-May-18 07:30N 30°13' W 093°15'0 0.0
2018-May-18 07:00N 30°13' W 093°15'0 0.0
2018-May-18 06:30N 30°13' W 093°15'0 0.0
2018-May-18 06:00N 30°13' W 093°15'0 0.0
2018-May-18 05:30N 30°13' W 093°15'0 0.0
2018-May-18 05:00N 30°13' W 093°15'0 0.0
2018-May-18 04:27N 30°13' W 093°15'0 0.0
2018-May-18 03:57N 30°13' W 093°15'0 0.0
2018-May-18 03:30N 30°13' W 093°15'0 0.0
2018-May-18 00:45N 30°13' W 093°15'0 0.0
2018-May-18 00:15N 30°13' W 093°15'0 0.0
2018-May-17 23:51N 30°13' W 093°15'0 0.0
2018-May-17 23:30N 30°13' W 093°15'0 0.0
2018-May-17 22:51N 30°13' W 093°15'0 0.8
2018-May-17 22:30N 30°13' W 093°16'1 1.6
2018-May-17 22:01N 30°14' W 093°15'0 0.7
2018-May-17 21:31N 30°13' W 093°15'1 1.0
2018-May-17 21:00N 30°13' W 093°16'0 0.3
2018-May-17 19:32N 30°13' W 093°15'0 0.0
2018-May-17 19:26N 30°13' W 093°15'0 0.0
2018-May-17 18:29N 30°13' W 093°15'0 0.0
2018-May-17 17:56N 30°13' W 093°15'0 0.0
2018-May-17 16:38N 30°13' W 093°15'0 0.0
2018-May-17 14:20N 30°13' W 093°15'0 0.0
2018-May-17 12:18N 30°13' W 093°15'0 1.1
2018-May-17 11:58N 30°13' W 093°16'2 3.7
2018-May-17 11:30N 30°12' W 093°17'3 6.4
2018-May-17 11:00N 30°09' W 093°20'2 4.4
2018-May-17 10:30N 30°07' W 093°20'2 3.3
2018-May-17 10:00N 30°06' W 093°19'2 3.6
2018-May-17 09:29N 30°06' W 093°17'0 0.0
2018-May-17 08:59N 30°06' W 093°17'0 0.0
2018-May-17 08:29N 30°06' W 093°17'0 0.0
2018-May-17 07:59N 30°06' W 093°17'0 0.0
2018-May-17 07:29N 30°06' W 093°17'0 0.0
2018-May-17 06:59N 30°06' W 093°17'0 0.0
2018-May-17 06:29N 30°06' W 093°17'0 0.0
2018-May-17 05:59N 30°06' W 093°17'0 0.0
2018-May-17 05:29N 30°06' W 093°17'0 0.0
2018-May-17 04:59N 30°06' W 093°17'0 0.0
2018-May-17 04:29N 30°06' W 093°17'0 0.0
2018-May-17 03:56N 30°06' W 093°17'0 0.0
2018-May-17 03:29N 30°06' W 093°17'0 0.0
2018-May-17 02:59N 30°06' W 093°17'0 0.0
2018-May-17 02:29N 30°06' W 093°17'0 0.0
2018-May-17 01:59N 30°06' W 093°17'0 0.0
2018-May-17 01:29N 30°06' W 093°17'0 0.0
2018-May-17 00:59N 30°06' W 093°17'0 0.0
2018-May-17 00:29N 30°06' W 093°17'0 0.0
2018-May-16 23:59N 30°06' W 093°17'0 0.0
2018-May-16 23:29N 30°06' W 093°17'0 0.0
2018-May-16 22:59N 30°06' W 093°17'0 0.0
2018-May-16 22:29N 30°06' W 093°17'0 0.0
2018-May-16 21:59N 30°06' W 093°17'0 0.0
2018-May-16 21:29N 30°06' W 093°17'2 4.0
2018-May-16 21:01N 30°06' W 093°20'4 7.3
2018-May-16 20:31N 30°09' W 093°20'2 4.0
2018-May-16 20:01N 30°11' W 093°18'3 5.0
2018-May-16 19:30N 30°12' W 093°16'1 1.9
2018-May-16 19:00N 30°13' W 093°16'1 1.6
2018-May-16 18:30N 30°14' W 093°15'1 2.0
2018-May-16 18:01N 30°13' W 093°15'0 0.0
2018-May-16 17:28N 30°13' W 093°15'0 0.0
2018-May-16 16:58N 30°13' W 093°15'0 0.0
2018-May-16 16:28N 30°13' W 093°15'0 0.0
2018-May-16 15:58N 30°13' W 093°15'0 0.0
2018-May-16 15:28N 30°13' W 093°15'0 0.0
2018-May-16 14:58N 30°13' W 093°15'0 0.0
2018-May-16 14:28N 30°13' W 093°15'0 0.0
2018-May-16 13:58N 30°13' W 093°15'0 0.0
2018-May-16 13:28N 30°13' W 093°15'2 3.7
2018-May-16 13:00N 30°12' W 093°17'3 5.9
2018-May-16 12:30N 30°10' W 093°19'1 1.6
2018-May-16 11:57N 30°10' W 093°19'0 0.0
2018-May-16 11:30N 30°10' W 093°19'4 7.9
2018-May-16 11:00N 30°07' W 093°20'2 4.1
2018-May-16 10:28N 30°06' W 093°17'0 0.0
2018-May-16 09:58N 30°06' W 093°17'0 0.0
2018-May-16 09:28N 30°06' W 093°17'0 0.0
2018-May-16 08:58N 30°06' W 093°17'0 0.0
2018-May-16 08:28N 30°06' W 093°17'0 0.0
2018-May-16 07:58N 30°06' W 093°17'0 0.0
2018-May-16 07:19N 30°06' W 093°17'0 0.0
2018-May-16 06:58N 30°06' W 093°17'0 0.0
2018-May-16 06:25N 30°06' W 093°17'0 0.0
2018-May-16 05:58N 30°06' W 093°17'0 0.0
2018-May-16 05:28N 30°06' W 093°17'0 0.0
2018-May-16 04:58N 30°06' W 093°17'0 0.0
2018-May-16 04:28N 30°06' W 093°17'0 0.0
2018-May-16 03:58N 30°06' W 093°17'0 0.0
2018-May-16 03:28N 30°06' W 093°17'0 0.0
2018-May-16 02:58N 30°06' W 093°17'0 0.0
2018-May-16 02:28N 30°06' W 093°17'0 0.0
2018-May-16 01:58N 30°06' W 093°17'0 0.0
2018-May-16 01:28N 30°06' W 093°17'0 0.0
2018-May-16 00:58N 30°06' W 093°17'0 0.0
2018-May-16 00:28N 30°06' W 093°17'0 0.0
2018-May-15 23:58N 30°06' W 093°17'0 0.0
2018-May-15 23:28N 30°06' W 093°17'0 0.0
2018-May-15 22:58N 30°06' W 093°17'0 0.0
2018-May-15 22:28N 30°06' W 093°17'0 0.0
2018-May-15 21:58N 30°06' W 093°17'0 0.0
2018-May-15 21:28N 30°06' W 093°17'0 0.0
2018-May-15 20:58N 30°06' W 093°17'0 0.0
2018-May-15 20:28N 30°06' W 093°17'0 0.0
2018-May-15 19:58N 30°06' W 093°17'0 0.0
2018-May-15 19:28N 30°06' W 093°17'0 0.0
2018-May-15 18:58N 30°06' W 093°17'0 0.0
2018-May-15 18:28N 30°06' W 093°17'0 0.0
2018-May-15 17:58N 30°06' W 093°17'0 0.0
2018-May-15 17:28N 30°06' W 093°17'0 0.0
2018-May-15 16:58N 30°06' W 093°17'0 0.0
2018-May-15 16:28N 30°06' W 093°17'0 0.0
2018-May-15 15:58N 30°06' W 093°17'0 0.0
2018-May-15 15:28N 30°06' W 093°17'0 0.0
2018-May-15 14:58N 30°06' W 093°17'0 0.0
2018-May-15 14:28N 30°06' W 093°17'0 0.0
2018-May-15 14:00N 30°06' W 093°17'2 4.7
2018-May-15 13:30N 30°07' W 093°20'4 8.0
2018-May-15 13:00N 30°11' W 093°19'3 4.2
2018-May-15 12:11N 30°13' W 093°15'0 2.2
2018-May-15 12:00N 30°14' W 093°15'0 0.6
2018-May-15 11:29N 30°14' W 093°15'1 0.8
2018-May-15 10:33N 30°13' W 093°15'0 0.4
2018-May-15 10:27N 30°13' W 093°15'0 0.7
2018-May-15 09:57N 30°13' W 093°15'0 0.0
2018-May-15 08:45N 30°13' W 093°15'2 6.3
2018-May-15 08:30N 30°12' W 093°17'2 5.0
2018-May-15 08:00N 30°11' W 093°19'0 0.1
2018-May-15 07:30N 30°11' W 093°19'1 1.2
2018-May-15 07:00N 30°11' W 093°18'0 1.0
2018-May-15 06:30N 30°11' W 093°19'0 0.5
2018-May-15 06:00N 30°10' W 093°19'0 0.0
2018-May-15 05:30N 30°10' W 093°19'2 3.2
2018-May-15 05:00N 30°09' W 093°20'2 4.0
2018-May-15 04:30N 30°11' W 093°19'1 2.3
2018-May-15 04:00N 30°12' W 093°18'1 2.6
2018-May-15 03:30N 30°11' W 093°19'0 0.0
2018-May-15 03:00N 30°11' W 093°19'3 6.2
2018-May-15 02:30N 30°12' W 093°16'1 1.7
2018-May-15 02:00N 30°13' W 093°15'0 0.0
2018-May-15 01:29N 30°13' W 093°15'0 0.0
2018-May-15 00:59N 30°13' W 093°15'0 0.0
2018-May-15 00:26N 30°13' W 093°15'0 0.0
2018-May-14 23:41N 30°13' W 093°15'0 0.0
2018-May-14 23:23N 30°13' W 093°15'0 0.0
2018-May-14 22:47N 30°13' W 093°15'0 0.0
2018-May-14 22:23N 30°13' W 093°15'0 0.6
2018-May-14 22:00N 30°13' W 093°16'3 6.4
2018-May-14 21:30N 30°11' W 093°18'1 1.2
2018-May-14 21:01N 30°11' W 093°19'2 4.3
2018-May-14 20:30N 30°09' W 093°20'0 0.8
2018-May-14 20:00N 30°08' W 093°20'4 7.0
2018-May-14 19:30N 30°11' W 093°18'3 4.9
2018-May-14 18:56N 30°13' W 093°15'0 0.0
2018-May-14 18:29N 30°13' W 093°15'0 0.0
2018-May-14 17:56N 30°13' W 093°15'0 0.0
2018-May-14 16:08N 30°13' W 093°15'0 0.0
2018-May-14 15:56N 30°13' W 093°15'0 0.0
2018-May-14 14:02N 30°13' W 093°15'0 0.0
2018-May-14 13:56N 30°13' W 093°15'0 0.0
2018-May-14 13:29N 30°13' W 093°15'0 0.0
2018-May-14 12:26N 30°13' W 093°15'0 0.0
2018-May-14 11:17N 30°13' W 093°15'6 2.6
2018-May-14 08:48N 30°08' W 093°20'1 3.5
2018-May-14 08:30N 30°07' W 093°20'2 3.8
2018-May-14 08:00N 30°07' W 093°18'0 0.8
2018-May-14 07:29N 30°06' W 093°17'0 0.0
2018-May-14 06:59N 30°06' W 093°17'0 0.0
2018-May-14 06:29N 30°06' W 093°17'0 0.0
2018-May-14 05:59N 30°06' W 093°17'0 0.0
2018-May-14 05:29N 30°06' W 093°17'0 0.0
2018-May-14 04:59N 30°06' W 093°17'0 0.0
2018-May-14 04:29N 30°06' W 093°17'0 0.0
2018-May-14 03:59N 30°06' W 093°17'0 0.0
2018-May-14 03:29N 30°06' W 093°17'0 0.0
2018-May-14 02:59N 30°06' W 093°17'0 0.0
2018-May-14 02:29N 30°06' W 093°17'0 0.0
2018-May-14 01:59N 30°06' W 093°17'1 1.5
2018-May-14 01:31N 30°06' W 093°18'2 5.0
2018-May-14 01:01N 30°08' W 093°20'1 2.2
2018-May-14 00:30N 30°10' W 093°20'0 0.1
2018-May-14 00:01N 30°10' W 093°20'2 3.0
2018-May-13 23:30N 30°08' W 093°20'3 5.6
2018-May-13 23:00N 30°05' W 093°19'2 3.6
2018-May-13 22:30N 30°03' W 093°20'2 4.2
2018-May-13 22:01N 30°05' W 093°19'2 4.0
2018-May-13 21:30N 30°06' W 093°17'0 0.0
2018-May-13 20:59N 30°06' W 093°17'0 0.0
2018-May-13 20:29N 30°06' W 093°17'0 0.0
2018-May-13 19:59N 30°06' W 093°17'0 0.0
2018-May-13 19:29N 30°06' W 093°17'2 3.5
2018-May-13 19:00N 30°06' W 093°19'4 7.3
2018-May-13 18:30N 30°09' W 093°20'1 0.7
2018-May-13 16:34N 30°08' W 093°20'0 0.4
2018-May-13 16:31N 30°08' W 093°20'0 0.8
2018-May-13 16:00N 30°08' W 093°20'3 5.4
2018-May-13 15:31N 30°06' W 093°19'2 3.5
2018-May-13 15:00N 30°06' W 093°17'0 0.0
2018-May-13 14:30N 30°06' W 093°17'2 4.0
2018-May-13 14:00N 30°06' W 093°20'3 5.9
2018-May-13 13:31N 30°09' W 093°20'1 1.7
2018-May-13 13:00N 30°09' W 093°20'1 1.8
2018-May-13 12:31N 30°10' W 093°19'4 7.9
2018-May-13 12:01N 30°13' W 093°16'0 0.3
2018-May-13 10:50N 30°13' W 093°15'0 0.0
2018-May-13 10:26N 30°13' W 093°15'0 0.0
2018-May-13 09:56N 30°13' W 093°15'0 0.0
2018-May-13 09:26N 30°13' W 093°15'0 0.0
2018-May-13 08:59N 30°13' W 093°15'0 0.0
2018-May-13 08:11N 30°13' W 093°15'0 0.0
2018-May-13 07:59N 30°13' W 093°15'0 0.0
2018-May-13 07:29N 30°13' W 093°15'0 0.0
2018-May-13 06:59N 30°13' W 093°15'0 0.0
2018-May-13 06:29N 30°13' W 093°15'0 0.0
2018-May-13 05:59N 30°13' W 093°15'0 0.0
2018-May-13 05:29N 30°13' W 093°15'0 0.0
2018-May-13 04:59N 30°13' W 093°15'0 0.0
2018-May-13 04:29N 30°13' W 093°15'0 0.0
2018-May-13 03:59N 30°13' W 093°15'0 0.0
2018-May-13 03:29N 30°13' W 093°15'0 0.0
2018-May-13 02:59N 30°13' W 093°15'0 0.0
2018-May-13 02:29N 30°13' W 093°15'0 0.0
2018-May-13 01:59N 30°13' W 093°15'0 0.0
2018-May-13 01:29N 30°13' W 093°15'0 0.0
2018-May-13 00:59N 30°13' W 093°15'0 0.0
2018-May-13 00:29N 30°13' W 093°15'0 0.0
2018-May-12 23:59N 30°13' W 093°15'0 0.0
2018-May-12 23:20N 30°13' W 093°15'0 0.0
2018-May-12 22:35N 30°13' W 093°15'0 0.0
2018-May-12 21:11N 30°13' W 093°15'0 0.0
2018-May-12 20:29N 30°13' W 093°15'0 0.0
2018-May-12 18:59N 30°13' W 093°15'0 0.0
2018-May-12 18:23N 30°13' W 093°15'0 0.0
2018-May-12 17:59N 30°13' W 093°15'0 0.0
2018-May-12 17:29N 30°13' W 093°15'0 0.0
2018-May-12 16:05N 30°13' W 093°15'0 0.0
2018-May-12 15:59N 30°13' W 093°15'1 1.8
2018-May-12 15:30N 30°13' W 093°14'1 0.9
2018-May-12 14:52N 30°14' W 093°15'0 0.5
2018-May-12 14:30N 30°14' W 093°15'1 2.1
2018-May-12 14:00N 30°13' W 093°16'3 5.0
2018-May-12 13:30N 30°11' W 093°18'2 4.2
2018-May-12 13:00N 30°10' W 093°19'2 4.6
2018-May-12 12:30N 30°07' W 093°20'3 6.5
2018-May-12 12:00N 30°04' W 093°20'1 2.8
2018-May-12 11:30N 30°03' W 093°20'4 4.8
2018-May-12 10:38N 30°06' W 093°17'0 0.0
2018-May-12 10:23N 30°06' W 093°17'0 0.0
2018-May-12 09:50N 30°06' W 093°17'0 0.0
2018-May-12 09:26N 30°06' W 093°17'0 0.0
2018-May-12 08:59N 30°06' W 093°17'0 0.0
2018-May-12 08:26N 30°06' W 093°17'0 0.0
2018-May-12 07:59N 30°06' W 093°17'0 0.0
2018-May-12 07:29N 30°06' W 093°17'0 0.0
2018-May-12 06:59N 30°06' W 093°17'0 0.0
2018-May-12 06:29N 30°06' W 093°17'0 0.0
2018-May-12 05:56N 30°06' W 093°17'0 0.0
2018-May-12 05:29N 30°06' W 093°17'0 0.0
2018-May-12 04:59N 30°06' W 093°17'0 0.0
2018-May-12 04:30N 30°06' W 093°17'2 4.8
2018-May-12 04:00N 30°08' W 093°20'3 6.5
2018-May-12 03:30N 30°11' W 093°19'3 6.6
2018-May-12 02:59N 30°13' W 093°16'1 2.7
2018-May-12 02:30N 30°14' W 093°15'0 0.6
2018-May-12 02:00N 30°14' W 093°15'3 6.4
2018-May-12 01:30N 30°12' W 093°17'3 5.5
2018-May-12 01:00N 30°10' W 093°20'0 0.0
2018-May-12 00:30N 30°10' W 093°20'1 1.2
2018-May-12 00:00N 30°09' W 093°20'2 4.9
2018-May-11 23:30N 30°07' W 093°20'2 4.8
2018-May-11 23:00N 30°04' W 093°20'1 1.3
2018-May-11 22:30N 30°04' W 093°20'3 6.8
2018-May-11 22:00N 30°06' W 093°17'0 0.0
2018-May-11 21:25N 30°06' W 093°17'0 0.0
2018-May-11 20:58N 30°06' W 093°17'0 0.0
2018-May-11 20:28N 30°06' W 093°17'0 0.0
2018-May-11 19:58N 30°06' W 093°17'0 0.0
2018-May-11 19:28N 30°06' W 093°17'0 0.0
2018-May-11 18:58N 30°06' W 093°17'0 0.0
2018-May-11 18:28N 30°06' W 093°17'0 0.0
2018-May-11 17:58N 30°06' W 093°17'0 0.0
2018-May-11 17:28N 30°06' W 093°17'0 0.0
2018-May-11 16:58N 30°06' W 093°17'0 0.0
2018-May-11 16:28N 30°06' W 093°17'0 0.0
2018-May-11 15:58N 30°06' W 093°17'2 4.4
2018-May-11 15:30N 30°06' W 093°20'3 5.9
2018-May-11 15:00N 30°09' W 093°20'1 1.3
2018-May-11 14:30N 30°10' W 093°20'0 0.0
2018-May-11 14:00N 30°10' W 093°20'0 0.0
2018-May-11 13:30N 30°10' W 093°20'3 6.1
2018-May-11 13:00N 30°12' W 093°17'3 5.7
2018-May-11 12:30N 30°13' W 093°15'11 3.0
2018-May-11 08:52N 30°04' W 093°20'0 0.8
2018-May-11 08:30N 30°04' W 093°20'2 4.9
2018-May-11 08:00N 30°06' W 093°19'1 2.2
2018-May-11 07:30N 30°06' W 093°17'0 0.0
2018-May-11 06:58N 30°06' W 093°17'0 0.0
2018-May-11 06:25N 30°06' W 093°17'0 0.0
2018-May-11 05:55N 30°06' W 093°17'0 0.0
2018-May-11 05:28N 30°06' W 093°17'  

Dump ship's entire track history